地図

経路データ

SID SEASON NUMBER BASIN SUBBASIN NAME ISO_TIME NATURE LAT LON WMO_WIND WMO_PRES WMO_AGENCY TRACK_TYPE DIST2LAND LANDFALL IFLAG USA_AGENCY USA_ATCF_ID USA_LAT USA_LON USA_RECORD USA_STATUS USA_WIND USA_PRES USA_SSHS USA_R34_NE USA_R34_SE USA_R34_SW USA_R34_NW USA_R50_NE USA_R50_SE USA_R50_SW USA_R50_NW USA_R64_NE USA_R64_SE USA_R64_SW USA_R64_NW USA_POCI USA_ROCI USA_RMW USA_EYE TOKYO_LAT TOKYO_LON TOKYO_GRADE TOKYO_WIND TOKYO_PRES TOKYO_R50_DIR TOKYO_R50_LONG TOKYO_R50_SHORT TOKYO_R30_DIR TOKYO_R30_LONG TOKYO_R30_SHORT TOKYO_LAND CMA_LAT CMA_LON CMA_CAT CMA_WIND CMA_PRES HKO_LAT HKO_LON HKO_CAT HKO_WIND HKO_PRES NEWDELHI_LAT NEWDELHI_LON NEWDELHI_GRADE NEWDELHI_WIND NEWDELHI_PRES NEWDELHI_CI NEWDELHI_DP NEWDELHI_POCI REUNION_LAT REUNION_LON REUNION_TYPE REUNION_WIND REUNION_PRES REUNION_TNUM REUNION_CI REUNION_RMW REUNION_R34_NE REUNION_R34_SE REUNION_R34_SW REUNION_R34_NW REUNION_R50_NE REUNION_R50_SE REUNION_R50_SW REUNION_R50_NW REUNION_R64_NE REUNION_R64_SE REUNION_R64_SW REUNION_R64_NW BOM_LAT BOM_LON BOM_TYPE BOM_WIND BOM_PRES BOM_TNUM BOM_CI BOM_RMW BOM_R34_NE BOM_R34_SE BOM_R34_SW BOM_R34_NW BOM_R50_NE BOM_R50_SE BOM_R50_SW BOM_R50_NW BOM_R64_NE BOM_R64_SE BOM_R64_SW BOM_R64_NW BOM_ROCI BOM_POCI BOM_EYE BOM_POS_METHOD BOM_PRES_METHOD NADI_LAT NADI_LON NADI_CAT NADI_WIND NADI_PRES WELLINGTON_LAT WELLINGTON_LON WELLINGTON_WIND WELLINGTON_PRES DS824_LAT DS824_LON DS824_STAGE DS824_WIND DS824_PRES TD9636_LAT TD9636_LON TD9636_STAGE TD9636_WIND TD9636_PRES TD9635_LAT TD9635_LON TD9635_WIND TD9635_PRES TD9635_ROCI NEUMANN_LAT NEUMANN_LON NEUMANN_CLASS NEUMANN_WIND NEUMANN_PRES MLC_LAT MLC_LON MLC_CLASS MLC_WIND MLC_PRES USA_GUST BOM_GUST BOM_GUST_PER REUNION_GUST REUNION_GUST_PER USA_SEAHGT USA_SEARAD_NE USA_SEARAD_SE USA_SEARAD_SW USA_SEARAD_NW STORM_SPEED STORM_DIR
1939350N10135 1939 85 WP MM NOT_NAMED 1939-12-16 10:00:00 NR 9.70000 134.500 main 897 860 __________O___ -1 9.70000 134.500 7 12 295
1939350N10135 1939 85 WP MM NOT_NAMED 1939-12-16 12:00:00 NR 9.86843 134.132 main 860 814 __________P___ -1 9.86843 134.132 7 12 294
1939350N10135 1939 85 WP MM NOT_NAMED 1939-12-16 15:00:00 NR 10.1076 133.580 main 814 754 __________P___ -1 10.1076 133.580 7 12 292
1939350N10135 1939 85 WP MM NOT_NAMED 1939-12-16 18:00:00 NR 10.3129 133.029 main 754 705 __________P___ -1 10.3129 133.029 7 11 288
1939350N10135 1939 85 WP MM NOT_NAMED 1939-12-16 21:00:00 NR 10.4647 132.482 main 705 684 __________P___ -1 10.4647 132.482 7 11 285
1939350N10135 1939 85 WP MM NOT_NAMED 1939-12-16 22:00:00 NR 10.5000 132.300 main 684 641 __________O___ -1 10.5000 132.300 7 11 279
1939350N10135 1939 85 WP MM NOT_NAMED 1939-12-17 00:00:00 NR 10.5460 131.939 main 641 591 __________P___ -1 10.5460 131.939 7 11 275
1939350N10135 1939 85 WP MM NOT_NAMED 1939-12-17 03:00:00 NR 10.5707 131.403 main 591 538 __________P___ -1 10.5707 131.403 7 10 271
1939350N10135 1939 85 WP MM NOT_NAMED 1939-12-17 06:00:00 NR 10.5728 130.878 main 538 486 __________P___ -1 10.5728 130.878 7 10 271
1939350N10135 1939 85 WP MM NOT_NAMED 1939-12-17 09:00:00 NR 10.5868 130.367 main 486 465 __________P___ -1 10.5868 130.367 7 10 272
1939350N10135 1939 85 WP MM NOT_NAMED 1939-12-17 10:00:00 NR 10.6000 130.200 main 465 434 __________O___ -1 10.6000 130.200 7 9 278
1939350N10135 1939 85 WP MM NOT_NAMED 1939-12-17 12:00:00 NR 10.6467 129.906 main 434 398 __________P___ -1 10.6467 129.906 7 9 281
1939350N10135 1939 85 WP MM NOT_NAMED 1939-12-17 15:00:00 NR 10.7420 129.478 main 398 349 __________P___ -1 10.7420 129.478 7 9 285
1939350N10135 1939 85 WP MM NOT_NAMED 1939-12-17 18:00:00 NR 10.8707 129.024 main 349 294 __________P___ -1 10.8707 129.024 7 10 287
1939350N10135 1939 85 WP MM NOT_NAMED 1939-12-17 21:00:00 NR 11.0361 128.499 main 294 273 __________P___ -1 11.0361 128.499 7 11 288
1939350N10135 1939 85 WP MM NOT_NAMED 1939-12-17 22:00:00 NR 11.1000 128.300 main 273 219 __________O___ -1 11.1000 128.300 7 14 286
1939350N10135 1939 85 WP MM NOT_NAMED 1939-12-18 00:00:00 NR 11.2229 127.830 main 219 138 __________P___ -1 11.2229 127.830 7 15 285
1939350N10135 1939 85 WP MM NOT_NAMED 1939-12-18 03:00:00 NR 11.4381 127.043 main 138 73 __________P___ -1 11.4381 127.043 7 17 286
1939350N10135 1939 85 WP MM NOT_NAMED 1939-12-18 06:00:00 NR 11.6929 126.205 main 73 0 __________P___ -1 11.6929 126.205 7 17 289
1939350N10135 1939 85 WP MM NOT_NAMED 1939-12-18 09:00:00 NR 11.9906 125.369 main 0 0 __________P___ -1 11.9906 125.369 7 17 291
1939350N10135 1939 85 WP MM NOT_NAMED 1939-12-18 10:00:00 NR 12.1000 125.100 main 0 0 __________O___ -1 12.1000 125.100 7 17 294
1939350N10135 1939 85 WP MM NOT_NAMED 1939-12-18 12:00:00 NR 12.3456 124.561 main 0 0 __________P___ -1 12.3456 124.561 7 17 297
1939350N10135 1939 85 WP MM NOT_NAMED 1939-12-18 15:00:00 NR 12.7523 123.777 main 0 0 __________P___ -1 12.7523 123.777 7 17 300
1939350N10135 1939 85 WP MM NOT_NAMED 1939-12-18 18:00:00 NR 13.1741 123.063 main 21 0 __________P___ -1 13.1741 123.063 7 15 303
1939350N10135 1939 85 WP MM NOT_NAMED 1939-12-18 21:00:00 NR 13.5762 122.465 main 0 0 __________P___ -1 13.5762 122.465 7 14 305
1939350N10135 1939 85 WP MM NOT_NAMED 1939-12-18 22:00:00 NR 13.7000 122.300 main 0 0 __________O___ -1 13.7000 122.300 3 11 307
1939350N10135 1939 85 WP MM NOT_NAMED 1939-12-19 00:00:00 NR 13.9005 122.017 main 0 0 __________P___ -1 13.9005 122.017 3 9 310
1939350N10135 1939 85 WP MM NOT_NAMED 1939-12-19 03:00:00 NR 14.1703 121.713 main 0 0 __________P___ -1 14.1703 121.713 3 7 318
1939350N10135 1939 85 WP MM NOT_NAMED 1939-12-19 06:00:00 NR 14.4279 121.525 main 0 0 __________P___ -1 14.4279 121.525 3 6 332
1939350N10135 1939 85 WP MM NOT_NAMED 1939-12-19 09:00:00 NR 14.7008 121.421 main 0 0 __________P___ -1 14.7008 121.421 3 6 343
1939350N10135 1939 85 WP MM NOT_NAMED 1939-12-19 10:00:00 NR 14.8000 121.400 main 0 0 __________O___ -1 14.8000 121.400 4 7 344
1939350N10135 1939 85 WP MM NOT_NAMED 1939-12-19 12:00:00 NR 15.0584 121.317 main 0 0 __________P___ -1 15.0584 121.317 4 8 347
1939350N10135 1939 85 WP MM NOT_NAMED 1939-12-19 15:00:00 NR 15.4721 121.249 main 0 0 __________P___ -1 15.4721 121.249 4 8 356
1939350N10135 1939 85 WP MM NOT_NAMED 1939-12-19 18:00:00 NR 15.8727 121.256 main 0 0 __________P___ -1 15.8727 121.256 4 7 7
1939350N10135 1939 85 WP MM NOT_NAMED 1939-12-19 21:00:00 NR 16.2102 121.349 main 0 0 __________P___ -1 16.2102 121.349 4 7 18
1939350N10135 1939 85 WP MM NOT_NAMED 1939-12-19 22:00:00 NR 16.3000 121.400 main 0 0 __________O___ -1 16.3000 121.400 4 6 39
1939350N10135 1939 85 WP MM NOT_NAMED 1939-12-20 00:00:00 NR 16.4239 121.531 main 0 0 __________P___ -1 16.4239 121.531 4 5 59
1939350N10135 1939 85 WP MM NOT_NAMED 1939-12-20 03:00:00 NR 16.5341 121.804 main 0 0 __________P___ -1 16.5341 121.804 4 6 75
1939350N10135 1939 85 WP MM NOT_NAMED 1939-12-20 06:00:00 NR 16.5812 122.135 main 0 0 __________P___ -1 16.5812 122.135 4 7 85
1939350N10135 1939 85 WP MM NOT_NAMED 1939-12-20 09:00:00 NR 16.5965 122.485 main 21 21 __________P___ -1 16.5965 122.485 4 7 88
1939350N10135 1939 85 WP MM NOT_NAMED 1939-12-20 10:00:00 NR 16.6000 122.600 main 30 30 __________O___ -1 16.6000 122.600 4 6 84
1939350N10135 1939 85 WP MM NOT_NAMED 1939-12-20 12:00:00 NR 16.6282 122.818 main 46 46 __________P___ -1 16.6282 122.818 4 6 84
1939350N10135 1939 85 WP MM NOT_NAMED 1939-12-20 15:00:00 NR 16.6578 123.146 main 67 77 __________P___ -1 16.6578 123.146 4 6 85
1939350N10135 1939 85 WP MM NOT_NAMED 1939-12-20 18:00:00 NR 16.6777 123.455 main 108 108 __________P___ -1 16.6777 123.455 4 6 86
1939350N10135 1939 85 WP MM NOT_NAMED 1939-12-20 21:00:00 NR 16.6942 123.724 main 129 129 __________P___ -1 16.6942 123.724 4 5 86
1939350N10135 1939 85 WP MM NOT_NAMED 1939-12-20 22:00:00 NR 16.7000 123.800 main 140 140 __________O___ -1 16.7000 123.800 4 4 85
1939350N10135 1939 85 WP MM NOT_NAMED 1939-12-21 00:00:00 NR 16.7112 123.926 main 150 150 __________P___ -1 16.7112 123.926 4 3 84
1939350N10135 1939 85 WP MM NOT_NAMED 1939-12-21 03:00:00 NR 16.7281 124.071 main 171 171 __________P___ -1 16.7281 124.071 4 2 81
1939350N10135 1939 85 WP MM NOT_NAMED 1939-12-21 06:00:00 NR 16.7506 124.179 main 181 181 __________P___ -1 16.7506 124.179 4 2 73
1939350N10135 1939 85 WP MM NOT_NAMED 1939-12-21 09:00:00 NR 16.7849 124.270 main 191 191 __________P___ -1 16.7849 124.270 4 2 68
1939350N10135 1939 85 WP MM NOT_NAMED 1939-12-21 10:00:00 NR 16.8000 124.300 main 191 191 __________O___ -1 16.8000 124.300 4 2 61
1939350N10135 1939 85 WP MM NOT_NAMED 1939-12-21 12:00:00 NR 16.8359 124.367 main 202 202 __________P___ -1 16.8359 124.367 4 2 57
1939350N10135 1939 85 WP MM NOT_NAMED 1939-12-21 15:00:00 NR 16.9024 124.461 main 212 212 __________P___ -1 16.9024 124.461 4 2 51
1939350N10135 1939 85 WP MM NOT_NAMED 1939-12-21 18:00:00 NR 16.9811 124.556 main 223 223 __________P___ -1 16.9811 124.556 4 3 49
1939350N10135 1939 85 WP MM NOT_NAMED 1939-12-21 21:00:00 NR 17.0692 124.661 main 234 234 __________P___ -1 17.0692 124.661 4 3 49
1939350N10135 1939 85 WP MM NOT_NAMED 1939-12-21 22:00:00 NR 17.1000 124.700 main 234 234 __________O___ -1 17.1000 124.700 4 3 53
1939350N10135 1939 85 WP MM NOT_NAMED 1939-12-22 00:00:00 NR 17.1636 124.794 main 245 245 __________P___ -1 17.1636 124.794 4 3 55
1939350N10135 1939 85 WP MM NOT_NAMED 1939-12-22 03:00:00 NR 17.2654 124.947 main 257 267 __________P___ -1 17.2654 124.947 4 4 55
1939350N10135 1939 85 WP MM NOT_NAMED 1939-12-22 06:00:00 NR 17.3692 125.105 main 279 279 __________P___ -1 17.3692 125.105 4 4 55
1939350N10135 1939 85 WP MM NOT_NAMED 1939-12-22 09:00:00 NR 17.4688 125.254 main 302 302 __________P___ -1 17.4688 125.254 4 3 55
1939350N10135 1939 85 WP MM NOT_NAMED 1939-12-22 10:00:00 NR 17.5000 125.300 main 302 302 __________O___ -1 17.5000 125.300 4 2 58
1939350N10135 1939 85 WP MM NOT_NAMED 1939-12-22 12:00:00 NR 17.5107 125.329 main 302 302 __________P___ -1 17.5107 125.329 4 1 70
1939350N10135 1939 85 WP MM NOT_NAMED 1939-12-22 15:00:00 NR 17.5194 125.359 main 313 313 __________P___ -1 17.5194 125.359 4 1 58
1939350N10135 1939 85 WP MM NOT_NAMED 1939-12-22 18:00:00 NR 17.5699 125.430 main 315 315 __________P___ -1 17.5699 125.430 4 3 49
1939350N10135 1939 85 WP MM NOT_NAMED 1939-12-22 21:00:00 NR 17.7188 125.606 main 338 338 __________P___ -1 17.7188 125.606 4 5 48
1939350N10135 1939 85 WP MM NOT_NAMED 1939-12-22 22:00:00 NR 17.8000 125.700 main 351 351 __________O___ -1 17.8000 125.700 7 9 48
1939350N10135 1939 85 WP MM NOT_NAMED 1939-12-23 00:00:00 NR 18.0343 125.977 main 387 391 __________P___ -1 18.0343 125.977 7 12 48
1939350N10135 1939 85 WP MM NOT_NAMED 1939-12-23 03:00:00 NR 18.4926 126.512 main 443 443 __________P___ -1 18.4926 126.512 7 15 48
1939350N10135 1939 85 WP MM NOT_NAMED 1939-12-23 06:00:00 NR 19.0343 127.137 main 510 521 __________P___ -1 19.0343 127.137 7 16 47
1939350N10135 1939 85 WP MM NOT_NAMED 1939-12-23 09:00:00 NR 19.6094 127.788 main 593 593 __________P___ -1 19.6094 127.788 7 17 47
1939350N10135 1939 85 WP MM NOT_NAMED 1939-12-23 10:00:00 NR 19.8000 128.000 main 619 619 __________O___ -1 19.8000 128.000 7 13 44
1939350N10135 1939 85 WP MM NOT_NAMED 1939-12-23 12:00:00 NR 20.0934 128.277 main 657 657 __________P___ -1 20.0934 128.277 7 12 41
1939350N10135 1939 85 WP MM NOT_NAMED 1939-12-23 15:00:00 NR 20.5396 128.682 main 710 714 __________P___ -1 20.5396 128.682 7 13 42
1939350N10135 1939 85 WP MM NOT_NAMED 1939-12-23 18:00:00 NR 21.0432 129.181 main 778 782 __________P___ -1 21.0432 129.181 7 16 45
1939350N10135 1939 85 WP MM NOT_NAMED 1939-12-23 21:00:00 NR 21.6599 129.893 main 875 875 __________P___ -1 21.6599 129.893 7 19 48
1939350N10135 1939 85 WP MM NOT_NAMED 1939-12-23 22:00:00 NR 21.9000 130.200 main 896 896 __________O___ -1 21.9000 130.200 7 26 52
1939350N10135 1939 85 WP MM NOT_NAMED 1939-12-24 00:00:00 NR 22.4649 130.997 main 949 865 __________P___ -1 22.4649 130.997 7 31 54
1939350N10135 1939 85 WP MM NOT_NAMED 1939-12-24 03:00:00 NR 23.4240 132.442 main 865 805 __________P___ -1 23.4240 132.442 7 35 55
1939350N10135 1939 85 WP MM NOT_NAMED 1939-12-24 06:00:00 NR 24.4500 134.072 main 809 785 __________P___ -1 24.4500 134.072 7 37 56
1939350N10135 1939 85 WP MM NOT_NAMED 1939-12-24 09:00:00 NR 25.4717 135.753 main 786 782 __________P___ -1 25.4717 135.753 7 36 56
1939350N10135 1939 85 WP MM NOT_NAMED 1939-12-24 10:00:00 NR 25.8000 136.300 main 786 783 __________O___ -1 25.8000 136.300 7 35 56
1939350N10135 1939 85 WP MM NOT_NAMED 1939-12-24 12:00:00 NR 26.4289 137.352 main 796 738 __________P___ -1 26.4289 137.352 7 33 56
1939350N10135 1939 85 WP MM NOT_NAMED 1939-12-24 15:00:00 NR 27.3128 138.841 main 738 718 __________P___ -1 27.3128 138.841 7 31 56
1939350N10135 1939 85 WP MM NOT_NAMED 1939-12-24 18:00:00 NR 28.1438 140.257 main 730 684 __________P___ -1 28.1438 140.257 7 30 57
1939350N10135 1939 85 WP MM NOT_NAMED 1939-12-24 21:00:00 NR 28.9397 141.640 main 688 665 __________P___ -1 28.9397 141.640 7 29 57
1939350N10135 1939 85 WP MM NOT_NAMED 1939-12-24 22:00:00 NR 29.2000 142.100 main 668 __________O___ -1 29.2000 142.100 7 29 57

デジタル台風データ・検索

IBTrACS Databaseについて

本データベースは、米国NOAAが公開する1842年以降の世界の熱帯低気圧のベストトラックデータアーカイブInternational Best Track Archive for Climate Stewardship (IBTrACS)を、ウェブで閲覧しやすい形式に変換したものです。

最終更新日:2021-10-08